Airfield :
LOGIN :

Register | Disclaimer

   EN    FR    IT 

 










Legend :    VFR   Marginal VFR   IFR   Intensive IFR   Very Intensive IFR
Visi :
Ceiling :
>= 8 km
>= 3000ft
5 to 8 km
1000 to 3000 ft
1500m to 5 km
500 to 1000 ft
800 to 1500m
200 to 500 ft
< 800m
< 200 ft
Symbols :   Thunderstorms  Fog  Heavy snow  Heavy precipitations  Wind > 20 kt
SIGMETs :     Misc.  Thunderstorms  Icing  Turbulence  Mountain Waves  Volcanic Ashes







- Airport Elevation : 1197 ft
- IATA code : SPM


ETAD - Spangdahlem Ab

CURRENT METAR :
  • 161756Z AUTO 08003KT 9999 CLR 26/09 A2989 RMK AO2 SLP099 T02610090 10299 20256 50002 $

EXPIRED METARs :
  • 161656Z AUTO 06005KT 9999 FEW090 27/10 A2988 RMK AO2 SLP095 T02710103 $
  • 161556Z AUTO 10006KT 9999 FEW100 27/10 A2989 RMK AO2 PK WND 32027/00 SLP100 T02720100 $

TAF TAF ETAD
Valid from the 16 at 11:00 until the 17 at 17:00 UTC


161114Z 1611/1717 33009KT 9999 SCT070 QNH2986INS
BECMG 1618/1619 VRB06KT 9999 FEW070 QNH2988INS
BECMG 1709/1710 29009KT 9999 SCT060 QNH2992INS TX27/1614Z TN13/1704Z
No reported NOTAMs for that airfield.



MET'MAP, your aeronautical weather chart ! - Copyright ORBIFLY December 2007 - Disclaimer

ORBIFLY MET'MAP TEAM :

Programming & Development : Alexandra Zaïnal
Concept & Development : Baudouin d'Aumeries
Co-Development & Prog : Marc-Olivier Méhu
Technical & hardware support : Manuel Goepfert

Contact : metmap@orbifly.com




SOURCES & CREDITS :

   NOAA